KFBL/FBL METAR and TAF weather

Enter ICAO airport designator
Station Type Date Time Source
KFBL METAR 2023/02/05 14:15 UTC NOAA

KFBL 051415Z AUTO 31005KT 5SM UP SCT048 BKN080 OVC090 M04/M06 A2994 RMK AO2


Station Type Date Time Source
KFBL Decoded METAR 2023/02/05 14:15 UTC NOAA

Faribault, Faribault Municipal Airport, MN, United States (KFBL) 44-20N 093-19W
Feb 05, 2023 - 09:15 AM EST / 2023.02.05 1415 UTC
Wind: from the NW (310 degrees) at 6 MPH (5 KT):0
Visibility: 5 mile(s):0
Sky conditions: overcast
Weather: precipitation
Temperature: 24 F (-4 C)
Windchill: 17 F (-8 C):1
Dew Point: 21 F (-6 C)
Relative Humidity: 85%
Pressure (altimeter): 29.94 in. Hg (1013 hPa)
ob: KFBL 051415Z AUTO 31005KT 5SM UP SCT048 BKN080 OVC090 M04/M06 A2994 RMK AO2
cycle: 14

Station Type Date Time Source
KFBL TAF UTC NOAA

Error!

Example: see airport list